sensor_id;sensor_type;location;lat;lon;timestamp;temperature;humidity
21772;DHT22;11047;47.904;8.110;2022-08-19T00:01:20;15.70;99.90
21772;DHT22;11047;47.904;8.110;2022-08-19T00:03:47;15.60;99.90
21772;DHT22;11047;47.904;8.110;2022-08-19T00:06:15;15.60;99.90
21772;DHT22;11047;47.904;8.110;2022-08-19T00:08:42;15.50;99.90
21772;DHT22;11047;47.904;8.110;2022-08-19T00:11:10;15.60;99.90
21772;DHT22;11047;47.904;8.110;2022-08-19T00:13:39;15.50;99.90
21772;DHT22;11047;47.904;8.110;2022-08-19T00:16:06;15.60;99.90
21772;DHT22;11047;47.904;8.110;2022-08-19T00:18:34;15.60;99.90
21772;DHT22;11047;47.904;8.110;2022-08-19T00:21:01;15.50;99.90
21772;DHT22;11047;47.904;8.110;2022-08-19T00:23:28;15.60;99.90
21772;DHT22;11047;47.904;8.110;2022-08-19T00:25:55;15.60;99.90
21772;DHT22;11047;47.904;8.110;2022-08-19T00:28:22;15.50;99.90
21772;DHT22;11047;47.904;8.110;2022-08-19T00:30:50;15.50;99.90
21772;DHT22;11047;47.904;8.110;2022-08-19T00:33:18;15.60;99.90
21772;DHT22;11047;47.904;8.110;2022-08-19T00:35:45;15.50;99.90
21772;DHT22;11047;47.904;8.110;2022-08-19T00:38:13;15.50;99.90
21772;DHT22;11047;47.904;8.110;2022-08-19T00:40:42;15.50;99.90
21772;DHT22;11047;47.904;8.110;2022-08-19T00:43:12;15.60;99.90
21772;DHT22;11047;47.904;8.110;2022-08-19T00:45:40;15.50;99.90
21772;DHT22;11047;47.904;8.110;2022-08-19T00:48:10;15.60;99.90
21772;DHT22;11047;47.904;8.110;2022-08-19T00:50:39;15.60;99.90
21772;DHT22;11047;47.904;8.110;2022-08-19T00:53:10;15.50;99.90
21772;DHT22;11047;47.904;8.110;2022-08-19T00:55:37;15.50;99.90
21772;DHT22;11047;47.904;8.110;2022-08-19T00:58:08;15.50;99.90
21772;DHT22;11047;47.904;8.110;2022-08-19T01:00:36;15.60;99.90
21772;DHT22;11047;47.904;8.110;2022-08-19T01:03:05;15.60;99.90
21772;DHT22;11047;47.904;8.110;2022-08-19T01:05:35;15.60;99.90
21772;DHT22;11047;47.904;8.110;2022-08-19T01:08:03;15.60;99.90
21772;DHT22;11047;47.904;8.110;2022-08-19T01:10:33;15.60;99.90
21772;DHT22;11047;47.904;8.110;2022-08-19T01:13:02;15.60;99.90
21772;DHT22;11047;47.904;8.110;2022-08-19T01:15:31;15.60;99.90
21772;DHT22;11047;47.904;8.110;2022-08-19T01:18:02;15.60;99.90
21772;DHT22;11047;47.904;8.110;2022-08-19T01:20:30;15.60;99.90
21772;DHT22;11047;47.904;8.110;2022-08-19T01:23:00;15.60;99.90
21772;DHT22;11047;47.904;8.110;2022-08-19T01:25:30;15.60;99.90
21772;DHT22;11047;47.904;8.110;2022-08-19T01:27:58;15.60;99.90
21772;DHT22;11047;47.904;8.110;2022-08-19T01:30:28;15.60;99.90
21772;DHT22;11047;47.904;8.110;2022-08-19T01:32:56;15.60;99.90
21772;DHT22;11047;47.904;8.110;2022-08-19T01:35:25;15.60;99.90
21772;DHT22;11047;47.904;8.110;2022-08-19T01:37:57;15.60;99.90
21772;DHT22;11047;47.904;8.110;2022-08-19T01:40:28;15.60;99.90
21772;DHT22;11047;47.904;8.110;2022-08-19T01:42:57;15.60;99.90
21772;DHT22;11047;47.904;8.110;2022-08-19T01:45:26;15.60;99.90
21772;DHT22;11047;47.904;8.110;2022-08-19T01:47:53;15.60;99.90
21772;DHT22;11047;47.904;8.110;2022-08-19T01:50:21;15.60;99.90
21772;DHT22;11047;47.904;8.110;2022-08-19T01:52:48;15.70;99.90
21772;DHT22;11047;47.904;8.110;2022-08-19T01:55:19;15.70;99.90
21772;DHT22;11047;47.904;8.110;2022-08-19T01:57:51;15.60;99.90
21772;DHT22;11047;47.904;8.110;2022-08-19T02:00:20;15.50;99.90
21772;DHT22;11047;47.904;8.110;2022-08-19T02:02:47;15.50;99.90
21772;DHT22;11047;47.904;8.110;2022-08-19T02:05:14;15.50;99.90
21772;DHT22;11047;47.904;8.110;2022-08-19T02:07:46;15.50;99.90
21772;DHT22;11047;47.904;8.110;2022-08-19T02:10:17;15.60;99.90
21772;DHT22;11047;47.904;8.110;2022-08-19T02:12:45;15.60;99.90
21772;DHT22;11047;47.904;8.110;2022-08-19T02:15:13;15.60;99.90
21772;DHT22;11047;47.904;8.110;2022-08-19T02:17:41;15.50;99.90
21772;DHT22;11047;47.904;8.110;2022-08-19T02:20:09;15.60;99.90
21772;DHT22;11047;47.904;8.110;2022-08-19T02:22:36;15.60;99.90
21772;DHT22;11047;47.904;8.110;2022-08-19T02:25:03;15.70;99.90
21772;DHT22;11047;47.904;8.110;2022-08-19T02:27:31;15.60;99.90
21772;DHT22;11047;47.904;8.110;2022-08-19T02:29:59;15.60;99.90
21772;DHT22;11047;47.904;8.110;2022-08-19T02:32:27;15.60;99.90
21772;DHT22;11047;47.904;8.110;2022-08-19T02:34:56;15.70;99.90
21772;DHT22;11047;47.904;8.110;2022-08-19T02:37:23;15.70;99.90
21772;DHT22;11047;47.904;8.110;2022-08-19T02:40:08;15.70;99.90
21772;DHT22;11047;47.904;8.110;2022-08-19T02:42:35;15.70;99.90
21772;DHT22;11047;47.904;8.110;2022-08-19T02:45:02;15.70;99.90
21772;DHT22;11047;47.904;8.110;2022-08-19T02:47:32;15.70;99.90
21772;DHT22;11047;47.904;8.110;2022-08-19T02:50:01;15.70;99.90
21772;DHT22;11047;47.904;8.110;2022-08-19T02:52:29;15.70;99.90
21772;DHT22;11047;47.904;8.110;2022-08-19T02:54:56;15.70;99.90
21772;DHT22;11047;47.904;8.110;2022-08-19T02:57:23;15.80;99.90
21772;DHT22;11047;47.904;8.110;2022-08-19T02:59:50;15.70;99.90
21772;DHT22;11047;47.904;8.110;2022-08-19T03:02:17;15.70;99.90
21772;DHT22;11047;47.904;8.110;2022-08-19T03:04:45;15.70;99.90
21772;DHT22;11047;47.904;8.110;2022-08-19T03:07:13;15.70;99.90
21772;DHT22;11047;47.904;8.110;2022-08-19T03:09:40;15.60;99.90
21772;DHT22;11047;47.904;8.110;2022-08-19T03:12:08;15.70;99.90
21772;DHT22;11047;47.904;8.110;2022-08-19T03:14:35;15.60;99.90
21772;DHT22;11047;47.904;8.110;2022-08-19T03:17:03;15.70;99.90
21772;DHT22;11047;47.904;8.110;2022-08-19T03:19:31;15.70;99.90
21772;DHT22;11047;47.904;8.110;2022-08-19T03:21:59;15.70;99.90
21772;DHT22;11047;47.904;8.110;2022-08-19T03:24:26;15.70;99.90
21772;DHT22;11047;47.904;8.110;2022-08-19T03:26:55;15.70;99.90
21772;DHT22;11047;47.904;8.110;2022-08-19T03:29:23;15.70;99.90
21772;DHT22;11047;47.904;8.110;2022-08-19T03:31:50;15.70;99.90
21772;DHT22;11047;47.904;8.110;2022-08-19T03:34:20;15.60;99.90
21772;DHT22;11047;47.904;8.110;2022-08-19T03:36:47;15.70;99.90
21772;DHT22;11047;47.904;8.110;2022-08-19T03:39:16;15.70;99.90
21772;DHT22;11047;47.904;8.110;2022-08-19T03:41:45;15.70;99.90
21772;DHT22;11047;47.904;8.110;2022-08-19T03:44:13;15.70;99.90
21772;DHT22;11047;47.904;8.110;2022-08-19T03:46:40;15.70;99.90
21772;DHT22;11047;47.904;8.110;2022-08-19T03:49:07;15.70;99.90
21772;DHT22;11047;47.904;8.110;2022-08-19T03:51:35;15.70;99.90
21772;DHT22;11047;47.904;8.110;2022-08-19T03:54:04;15.70;99.90
21772;DHT22;11047;47.904;8.110;2022-08-19T03:56:36;15.70;99.90
21772;DHT22;11047;47.904;8.110;2022-08-19T03:59:05;15.70;99.90
21772;DHT22;11047;47.904;8.110;2022-08-19T04:01:32;15.60;99.90
21772;DHT22;11047;47.904;8.110;2022-08-19T04:03:59;15.70;99.90
21772;DHT22;11047;47.904;8.110;2022-08-19T04:06:28;15.70;99.90
21772;DHT22;11047;47.904;8.110;2022-08-19T04:08:57;15.80;99.90
21772;DHT22;11047;47.904;8.110;2022-08-19T04:11:27;15.80;99.90
21772;DHT22;11047;47.904;8.110;2022-08-19T04:13:56;15.80;99.90
21772;DHT22;11047;47.904;8.110;2022-08-19T04:16:24;15.70;99.90
21772;DHT22;11047;47.904;8.110;2022-08-19T04:18:54;15.70;99.90
21772;DHT22;11047;47.904;8.110;2022-08-19T04:21:23;15.70;99.90
21772;DHT22;11047;47.904;8.110;2022-08-19T04:23:50;15.70;99.90
21772;DHT22;11047;47.904;8.110;2022-08-19T04:26:22;15.70;99.90
21772;DHT22;11047;47.904;8.110;2022-08-19T04:28:49;15.60;99.90
21772;DHT22;11047;47.904;8.110;2022-08-19T04:31:20;15.60;99.90
21772;DHT22;11047;47.904;8.110;2022-08-19T04:33:48;15.60;99.90
21772;DHT22;11047;47.904;8.110;2022-08-19T04:36:18;15.60;99.90
21772;DHT22;11047;47.904;8.110;2022-08-19T04:38:46;15.60;99.90
21772;DHT22;11047;47.904;8.110;2022-08-19T04:41:13;15.60;99.90
21772;DHT22;11047;47.904;8.110;2022-08-19T04:43:57;15.60;99.90
21772;DHT22;11047;47.904;8.110;2022-08-19T04:46:26;15.70;99.90
21772;DHT22;11047;47.904;8.110;2022-08-19T04:48:54;15.70;99.90
21772;DHT22;11047;47.904;8.110;2022-08-19T04:51:22;15.70;99.90
21772;DHT22;11047;47.904;8.110;2022-08-19T04:53:50;15.70;99.90
21772;DHT22;11047;47.904;8.110;2022-08-19T04:56:18;15.70;99.90
21772;DHT22;11047;47.904;8.110;2022-08-19T04:58:46;15.70;99.90
21772;DHT22;11047;47.904;8.110;2022-08-19T05:01:14;15.60;99.90
21772;DHT22;11047;47.904;8.110;2022-08-19T05:03:44;15.70;99.90
21772;DHT22;11047;47.904;8.110;2022-08-19T05:06:14;15.70;99.90
21772;DHT22;11047;47.904;8.110;2022-08-19T05:08:43;15.70;99.90
21772;DHT22;11047;47.904;8.110;2022-08-19T05:11:15;15.70;99.90
21772;DHT22;11047;47.904;8.110;2022-08-19T05:13:43;15.70;99.90
21772;DHT22;11047;47.904;8.110;2022-08-19T05:16:12;15.70;99.90
21772;DHT22;11047;47.904;8.110;2022-08-19T05:18:40;15.70;99.90
21772;DHT22;11047;47.904;8.110;2022-08-19T05:21:26;15.70;99.90
21772;DHT22;11047;47.904;8.110;2022-08-19T05:24:11;15.70;99.90
21772;DHT22;11047;47.904;8.110;2022-08-19T05:26:42;15.70;99.90
21772;DHT22;11047;47.904;8.110;2022-08-19T05:29:13;15.60;99.90
21772;DHT22;11047;47.904;8.110;2022-08-19T05:31:40;15.60;99.90
21772;DHT22;11047;47.904;8.110;2022-08-19T05:34:07;15.60;99.90
21772;DHT22;11047;47.904;8.110;2022-08-19T05:36:38;15.60;99.90
21772;DHT22;11047;47.904;8.110;2022-08-19T05:39:06;15.60;99.90
21772;DHT22;11047;47.904;8.110;2022-08-19T05:41:33;15.60;99.90
21772;DHT22;11047;47.904;8.110;2022-08-19T05:44:03;15.60;99.90
21772;DHT22;11047;47.904;8.110;2022-08-19T05:46:34;15.60;99.90
21772;DHT22;11047;47.904;8.110;2022-08-19T05:49:03;15.70;99.90
21772;DHT22;11047;47.904;8.110;2022-08-19T05:51:31;15.70;99.90
21772;DHT22;11047;47.904;8.110;2022-08-19T05:54:01;15.60;99.90
21772;DHT22;11047;47.904;8.110;2022-08-19T05:56:28;15.60;99.90
21772;DHT22;11047;47.904;8.110;2022-08-19T05:58:56;15.60;99.90
21772;DHT22;11047;47.904;8.110;2022-08-19T06:01:25;15.60;99.90
21772;DHT22;11047;47.904;8.110;2022-08-19T06:03:52;15.70;99.90
21772;DHT22;11047;47.904;8.110;2022-08-19T06:06:20;15.60;99.90
21772;DHT22;11047;47.904;8.110;2022-08-19T06:08:47;15.70;99.90
21772;DHT22;11047;47.904;8.110;2022-08-19T06:11:19;15.60;99.90
21772;DHT22;11047;47.904;8.110;2022-08-19T06:13:48;15.70;99.90
21772;DHT22;11047;47.904;8.110;2022-08-19T06:16:16;15.70;99.90
21772;DHT22;11047;47.904;8.110;2022-08-19T06:18:48;15.70;99.90
21772;DHT22;11047;47.904;8.110;2022-08-19T06:21:17;15.60;99.90
21772;DHT22;11047;47.904;8.110;2022-08-19T06:23:44;15.70;99.90
21772;DHT22;11047;47.904;8.110;2022-08-19T06:26:13;15.70;99.90
21772;DHT22;11047;47.904;8.110;2022-08-19T06:28:41;15.70;99.90
21772;DHT22;11047;47.904;8.110;2022-08-19T06:31:12;15.80;99.90
21772;DHT22;11047;47.904;8.110;2022-08-19T06:33:40;15.90;99.90
21772;DHT22;11047;47.904;8.110;2022-08-19T06:36:08;15.90;99.90
21772;DHT22;11047;47.904;8.110;2022-08-19T06:38:35;15.90;99.90
21772;DHT22;11047;47.904;8.110;2022-08-19T06:41:02;16.00;99.90
21772;DHT22;11047;47.904;8.110;2022-08-19T06:43:30;15.90;99.90
21772;DHT22;11047;47.904;8.110;2022-08-19T06:45:58;16.00;99.90
21772;DHT22;11047;47.904;8.110;2022-08-19T06:48:26;16.00;99.90
21772;DHT22;11047;47.904;8.110;2022-08-19T06:50:53;16.00;99.90
21772;DHT22;11047;47.904;8.110;2022-08-19T06:53:20;16.00;99.90
21772;DHT22;11047;47.904;8.110;2022-08-19T06:55:47;16.00;99.90
21772;DHT22;11047;47.904;8.110;2022-08-19T06:58:15;16.00;99.90
21772;DHT22;11047;47.904;8.110;2022-08-19T07:00:43;15.80;99.90
21772;DHT22;11047;47.904;8.110;2022-08-19T07:03:11;15.90;99.90
21772;DHT22;11047;47.904;8.110;2022-08-19T07:05:39;15.90;99.90
21772;DHT22;11047;47.904;8.110;2022-08-19T07:08:06;16.00;99.90
21772;DHT22;11047;47.904;8.110;2022-08-19T07:10:35;16.00;99.90
21772;DHT22;11047;47.904;8.110;2022-08-19T07:13:02;15.90;99.90
21772;DHT22;11047;47.904;8.110;2022-08-19T07:15:29;16.00;99.90
21772;DHT22;11047;47.904;8.110;2022-08-19T07:17:57;15.90;99.90
21772;DHT22;11047;47.904;8.110;2022-08-19T07:20:25;15.80;99.90
21772;DHT22;11047;47.904;8.110;2022-08-19T07:22:52;15.80;99.90
21772;DHT22;11047;47.904;8.110;2022-08-19T07:25:19;15.90;99.90
21772;DHT22;11047;47.904;8.110;2022-08-19T07:27:48;16.00;99.90
21772;DHT22;11047;47.904;8.110;2022-08-19T07:30:15;15.90;99.90
21772;DHT22;11047;47.904;8.110;2022-08-19T07:32:42;15.80;99.90
21772;DHT22;11047;47.904;8.110;2022-08-19T07:35:10;15.70;99.90
21772;DHT22;11047;47.904;8.110;2022-08-19T07:37:38;15.70;99.90
21772;DHT22;11047;47.904;8.110;2022-08-19T07:40:10;15.70;99.90
21772;DHT22;11047;47.904;8.110;2022-08-19T07:42:37;15.60;99.90
21772;DHT22;11047;47.904;8.110;2022-08-19T07:45:05;15.90;99.90
21772;DHT22;11047;47.904;8.110;2022-08-19T07:47:32;15.70;99.90
21772;DHT22;11047;47.904;8.110;2022-08-19T07:49:59;15.60;99.90
21772;DHT22;11047;47.904;8.110;2022-08-19T07:52:26;15.70;99.90
21772;DHT22;11047;47.904;8.110;2022-08-19T07:54:54;15.60;99.90
21772;DHT22;11047;47.904;8.110;2022-08-19T07:57:21;15.60;99.90
21772;DHT22;11047;47.904;8.110;2022-08-19T07:59:48;15.60;99.90
21772;DHT22;11047;47.904;8.110;2022-08-19T08:02:16;15.60;99.90
21772;DHT22;11047;47.904;8.110;2022-08-19T08:04:43;15.60;99.90
21772;DHT22;11047;47.904;8.110;2022-08-19T08:07:27;15.60;99.90
21772;DHT22;11047;47.904;8.110;2022-08-19T08:10:13;15.70;99.90
21772;DHT22;11047;47.904;8.110;2022-08-19T08:12:40;15.70;99.90
21772;DHT22;11047;47.904;8.110;2022-08-19T08:15:10;15.80;99.90
21772;DHT22;11047;47.904;8.110;2022-08-19T08:17:37;15.80;99.90
21772;DHT22;11047;47.904;8.110;2022-08-19T08:20:05;15.80;99.90
21772;DHT22;11047;47.904;8.110;2022-08-19T08:22:33;16.00;99.90
21772;DHT22;11047;47.904;8.110;2022-08-19T08:25:21;16.00;99.90
21772;DHT22;11047;47.904;8.110;2022-08-19T08:27:49;15.90;99.90
21772;DHT22;11047;47.904;8.110;2022-08-19T08:30:19;15.90;99.90
21772;DHT22;11047;47.904;8.110;2022-08-19T08:32:46;15.90;99.90
21772;DHT22;11047;47.904;8.110;2022-08-19T08:35:15;16.00;99.90
21772;DHT22;11047;47.904;8.110;2022-08-19T08:37:43;15.90;99.90
21772;DHT22;11047;47.904;8.110;2022-08-19T08:40:21;15.90;99.90
21772;DHT22;11047;47.904;8.110;2022-08-19T08:42:55;16.00;99.90
21772;DHT22;11047;47.904;8.110;2022-08-19T08:45:27;16.00;99.90
21772;DHT22;11047;47.904;8.110;2022-08-19T08:47:57;16.00;99.90
21772;DHT22;11047;47.904;8.110;2022-08-19T08:50:29;16.00;99.90
21772;DHT22;11047;47.904;8.110;2022-08-19T08:53:02;16.00;99.90
21772;DHT22;11047;47.904;8.110;2022-08-19T08:55:31;15.90;99.90
21772;DHT22;11047;47.904;8.110;2022-08-19T08:58:01;15.90;99.90
21772;DHT22;11047;47.904;8.110;2022-08-19T09:00:32;15.90;99.90
21772;DHT22;11047;47.904;8.110;2022-08-19T09:03:01;15.90;99.90
21772;DHT22;11047;47.904;8.110;2022-08-19T09:05:38;15.80;99.90
21772;DHT22;11047;47.904;8.110;2022-08-19T09:08:13;15.90;99.90
21772;DHT22;11047;47.904;8.110;2022-08-19T09:10:49;16.00;99.90
21772;DHT22;11047;47.904;8.110;2022-08-19T09:13:21;16.00;99.90
21772;DHT22;11047;47.904;8.110;2022-08-19T09:15:53;16.10;99.90
21772;DHT22;11047;47.904;8.110;2022-08-19T09:18:22;16.00;99.90
21772;DHT22;11047;47.904;8.110;2022-08-19T09:20:49;16.10;99.90
21772;DHT22;11047;47.904;8.110;2022-08-19T09:23:16;16.10;99.90
21772;DHT22;11047;47.904;8.110;2022-08-19T09:25:44;16.00;99.90
21772;DHT22;11047;47.904;8.110;2022-08-19T09:28:11;16.00;99.90
21772;DHT22;11047;47.904;8.110;2022-08-19T09:30:40;16.10;99.90
21772;DHT22;11047;47.904;8.110;2022-08-19T09:33:07;16.00;99.90
21772;DHT22;11047;47.904;8.110;2022-08-19T09:35:34;16.00;99.90
21772;DHT22;11047;47.904;8.110;2022-08-19T09:38:01;16.00;99.90
21772;DHT22;11047;47.904;8.110;2022-08-19T09:40:29;16.00;99.90
21772;DHT22;11047;47.904;8.110;2022-08-19T09:42:58;16.10;99.90
21772;DHT22;11047;47.904;8.110;2022-08-19T09:45:28;16.00;99.90
21772;DHT22;11047;47.904;8.110;2022-08-19T09:47:56;16.00;99.90
21772;DHT22;11047;47.904;8.110;2022-08-19T09:50:23;16.10;99.90
21772;DHT22;11047;47.904;8.110;2022-08-19T09:52:51;16.10;99.90
21772;DHT22;11047;47.904;8.110;2022-08-19T09:55:19;16.00;99.90
21772;DHT22;11047;47.904;8.110;2022-08-19T09:57:46;16.20;99.90
21772;DHT22;11047;47.904;8.110;2022-08-19T10:00:15;16.40;99.90
21772;DHT22;11047;47.904;8.110;2022-08-19T10:02:41;16.40;99.90
21772;DHT22;11047;47.904;8.110;2022-08-19T10:05:08;16.40;99.90
21772;DHT22;11047;47.904;8.110;2022-08-19T10:07:53;16.40;99.90
21772;DHT22;11047;47.904;8.110;2022-08-19T10:10:20;16.40;99.90
21772;DHT22;11047;47.904;8.110;2022-08-19T10:12:47;16.50;99.90
21772;DHT22;11047;47.904;8.110;2022-08-19T10:15:16;16.50;99.90
21772;DHT22;11047;47.904;8.110;2022-08-19T10:17:47;16.40;99.90
21772;DHT22;11047;47.904;8.110;2022-08-19T10:20:14;16.50;99.90
21772;DHT22;11047;47.904;8.110;2022-08-19T10:22:42;16.40;99.90
21772;DHT22;11047;47.904;8.110;2022-08-19T10:25:14;16.40;99.90
21772;DHT22;11047;47.904;8.110;2022-08-19T10:27:42;16.30;99.90
21772;DHT22;11047;47.904;8.110;2022-08-19T10:30:11;16.20;99.90
21772;DHT22;11047;47.904;8.110;2022-08-19T10:32:39;16.20;99.90
21772;DHT22;11047;47.904;8.110;2022-08-19T10:35:07;16.30;99.90
21772;DHT22;11047;47.904;8.110;2022-08-19T10:37:36;16.30;99.90
21772;DHT22;11047;47.904;8.110;2022-08-19T10:40:05;16.20;99.90
21772;DHT22;11047;47.904;8.110;2022-08-19T10:42:33;16.20;99.90
21772;DHT22;11047;47.904;8.110;2022-08-19T10:45:01;16.20;99.90
21772;DHT22;11047;47.904;8.110;2022-08-19T10:47:28;16.40;99.90
21772;DHT22;11047;47.904;8.110;2022-08-19T10:49:56;16.50;99.90
21772;DHT22;11047;47.904;8.110;2022-08-19T10:52:41;16.50;99.90
21772;DHT22;11047;47.904;8.110;2022-08-19T10:55:08;16.60;99.90
21772;DHT22;11047;47.904;8.110;2022-08-19T10:57:53;16.60;99.90
21772;DHT22;11047;47.904;8.110;2022-08-19T11:00:21;16.40;99.90
21772;DHT22;11047;47.904;8.110;2022-08-19T11:02:48;16.50;99.90
21772;DHT22;11047;47.904;8.110;2022-08-19T11:05:17;16.50;99.90
21772;DHT22;11047;47.904;8.110;2022-08-19T11:07:45;16.50;99.90
21772;DHT22;11047;47.904;8.110;2022-08-19T11:10:14;16.60;99.90
21772;DHT22;11047;47.904;8.110;2022-08-19T11:12:44;16.30;99.90
21772;DHT22;11047;47.904;8.110;2022-08-19T11:15:12;16.50;99.90
21772;DHT22;11047;47.904;8.110;2022-08-19T11:17:39;16.40;99.90
21772;DHT22;11047;47.904;8.110;2022-08-19T11:20:10;16.60;99.90
21772;DHT22;11047;47.904;8.110;2022-08-19T11:22:39;16.70;99.90
21772;DHT22;11047;47.904;8.110;2022-08-19T11:25:07;16.70;99.90
21772;DHT22;11047;47.904;8.110;2022-08-19T11:27:38;16.80;99.90
21772;DHT22;11047;47.904;8.110;2022-08-19T11:30:08;16.90;99.90
21772;DHT22;11047;47.904;8.110;2022-08-19T11:32:35;17.00;99.90
21772;DHT22;11047;47.904;8.110;2022-08-19T11:35:03;17.10;99.90
21772;DHT22;11047;47.904;8.110;2022-08-19T11:37:30;17.30;99.90
21772;DHT22;11047;47.904;8.110;2022-08-19T11:39:59;17.20;99.90
21772;DHT22;11047;47.904;8.110;2022-08-19T11:42:26;17.30;99.90
21772;DHT22;11047;47.904;8.110;2022-08-19T11:45:10;17.30;99.90
21772;DHT22;11047;47.904;8.110;2022-08-19T11:47:39;17.20;99.90
21772;DHT22;11047;47.904;8.110;2022-08-19T11:50:13;17.20;99.90
21772;DHT22;11047;47.904;8.110;2022-08-19T11:52:41;17.30;99.90
21772;DHT22;11047;47.904;8.110;2022-08-19T11:55:11;17.20;99.90
21772;DHT22;11047;47.904;8.110;2022-08-19T11:57:38;17.20;99.90
21772;DHT22;11047;47.904;8.110;2022-08-19T12:00:07;17.30;99.90
21772;DHT22;11047;47.904;8.110;2022-08-19T12:02:34;17.40;99.90
21772;DHT22;11047;47.904;8.110;2022-08-19T12:05:01;17.50;99.90
21772;DHT22;11047;47.904;8.110;2022-08-19T12:07:29;17.60;99.90
21772;DHT22;11047;47.904;8.110;2022-08-19T12:09:58;17.70;99.90
21772;DHT22;11047;47.904;8.110;2022-08-19T12:12:29;17.80;99.90
21772;DHT22;11047;47.904;8.110;2022-08-19T12:14:56;18.00;99.90
21772;DHT22;11047;47.904;8.110;2022-08-19T12:17:24;18.20;99.90
21772;DHT22;11047;47.904;8.110;2022-08-19T12:19:52;18.10;99.90
21772;DHT22;11047;47.904;8.110;2022-08-19T12:22:19;18.30;99.90
21772;DHT22;11047;47.904;8.110;2022-08-19T12:24:46;18.20;99.90
21772;DHT22;11047;47.904;8.110;2022-08-19T12:27:15;18.40;99.90
21772;DHT22;11047;47.904;8.110;2022-08-19T12:29:44;18.50;99.90
21772;DHT22;11047;47.904;8.110;2022-08-19T12:32:10;18.40;99.90
21772;DHT22;11047;47.904;8.110;2022-08-19T12:34:45;18.70;99.90
21772;DHT22;11047;47.904;8.110;2022-08-19T12:37:13;18.90;99.90
21772;DHT22;11047;47.904;8.110;2022-08-19T12:39:41;19.30;99.90
21772;DHT22;11047;47.904;8.110;2022-08-19T12:42:09;19.40;99.90
21772;DHT22;11047;47.904;8.110;2022-08-19T12:44:36;19.50;99.90
21772;DHT22;11047;47.904;8.110;2022-08-19T12:47:06;19.70;99.90
21772;DHT22;11047;47.904;8.110;2022-08-19T12:49:33;20.00;99.90
21772;DHT22;11047;47.904;8.110;2022-08-19T12:52:02;19.80;99.90
21772;DHT22;11047;47.904;8.110;2022-08-19T12:54:29;19.80;99.90
21772;DHT22;11047;47.904;8.110;2022-08-19T12:56:58;19.60;99.90
21772;DHT22;11047;47.904;8.110;2022-08-19T12:59:25;19.40;99.90
21772;DHT22;11047;47.904;8.110;2022-08-19T13:01:53;19.20;99.90
21772;DHT22;11047;47.904;8.110;2022-08-19T13:04:21;19.10;99.90
21772;DHT22;11047;47.904;8.110;2022-08-19T13:06:49;19.00;99.90
21772;DHT22;11047;47.904;8.110;2022-08-19T13:09:39;19.10;99.90
21772;DHT22;11047;47.904;8.110;2022-08-19T13:12:07;19.30;99.90
21772;DHT22;11047;47.904;8.110;2022-08-19T13:14:38;19.40;99.90
21772;DHT22;11047;47.904;8.110;2022-08-19T13:17:06;19.40;99.90
21772;DHT22;11047;47.904;8.110;2022-08-19T13:19:36;19.30;99.90
21772;DHT22;11047;47.904;8.110;2022-08-19T13:22:02;19.20;99.90
21772;DHT22;11047;47.904;8.110;2022-08-19T13:24:30;19.10;99.90
21772;DHT22;11047;47.904;8.110;2022-08-19T13:26:56;19.10;99.90
21772;DHT22;11047;47.904;8.110;2022-08-19T13:29:23;19.10;99.90
21772;DHT22;11047;47.904;8.110;2022-08-19T13:32:07;19.00;99.90
21772;DHT22;11047;47.904;8.110;2022-08-19T13:34:53;19.10;99.90
21772;DHT22;11047;47.904;8.110;2022-08-19T13:37:20;19.20;99.90
21772;DHT22;11047;47.904;8.110;2022-08-19T13:40:08;19.30;99.90
21772;DHT22;11047;47.904;8.110;2022-08-19T13:42:37;19.40;99.90
21772;DHT22;11047;47.904;8.110;2022-08-19T13:45:04;19.50;99.90
21772;DHT22;11047;47.904;8.110;2022-08-19T13:47:32;19.60;99.90
21772;DHT22;11047;47.904;8.110;2022-08-19T13:50:08;19.70;99.90
21772;DHT22;11047;47.904;8.110;2022-08-19T13:52:35;19.90;99.90
21772;DHT22;11047;47.904;8.110;2022-08-19T13:55:03;20.00;99.90
21772;DHT22;11047;47.904;8.110;2022-08-19T13:57:30;20.00;99.90
21772;DHT22;11047;47.904;8.110;2022-08-19T13:59:57;20.10;99.90
21772;DHT22;11047;47.904;8.110;2022-08-19T14:02:24;20.30;99.90
21772;DHT22;11047;47.904;8.110;2022-08-19T14:04:51;20.30;99.90
21772;DHT22;11047;47.904;8.110;2022-08-19T14:07:19;20.20;99.90
21772;DHT22;11047;47.904;8.110;2022-08-19T14:09:49;20.40;99.90
21772;DHT22;11047;47.904;8.110;2022-08-19T14:12:18;20.50;99.90
21772;DHT22;11047;47.904;8.110;2022-08-19T14:14:46;20.40;99.90
21772;DHT22;11047;47.904;8.110;2022-08-19T14:17:13;20.20;99.90
21772;DHT22;11047;47.904;8.110;2022-08-19T14:19:40;20.10;99.90
21772;DHT22;11047;47.904;8.110;2022-08-19T14:22:07;20.00;99.90
21772;DHT22;11047;47.904;8.110;2022-08-19T14:24:37;20.10;99.90
21772;DHT22;11047;47.904;8.110;2022-08-19T14:27:05;19.90;99.90
21772;DHT22;11047;47.904;8.110;2022-08-19T14:29:32;20.00;99.90
21772;DHT22;11047;47.904;8.110;2022-08-19T14:31:59;20.10;99.90
21772;DHT22;11047;47.904;8.110;2022-08-19T14:34:26;20.10;99.90
21772;DHT22;11047;47.904;8.110;2022-08-19T14:36:53;20.10;99.90
21772;DHT22;11047;47.904;8.110;2022-08-19T14:39:20;20.20;99.90
21772;DHT22;11047;47.904;8.110;2022-08-19T14:41:48;20.10;99.90
21772;DHT22;11047;47.904;8.110;2022-08-19T14:44:16;20.10;99.90
21772;DHT22;11047;47.904;8.110;2022-08-19T14:46:42;19.90;99.90
21772;DHT22;11047;47.904;8.110;2022-08-19T14:49:09;19.90;99.90
21772;DHT22;11047;47.904;8.110;2022-08-19T14:51:36;20.10;99.90
21772;DHT22;11047;47.904;8.110;2022-08-19T14:54:04;20.10;99.90
21772;DHT22;11047;47.904;8.110;2022-08-19T14:56:31;20.00;99.90
21772;DHT22;11047;47.904;8.110;2022-08-19T14:58:59;19.80;99.90
21772;DHT22;11047;47.904;8.110;2022-08-19T15:01:27;19.70;99.90
21772;DHT22;11047;47.904;8.110;2022-08-19T15:03:54;19.70;99.90
21772;DHT22;11047;47.904;8.110;2022-08-19T15:06:27;19.50;99.90
21772;DHT22;11047;47.904;8.110;2022-08-19T15:08:55;19.60;99.90
21772;DHT22;11047;47.904;8.110;2022-08-19T15:11:24;19.70;99.90
21772;DHT22;11047;47.904;8.110;2022-08-19T15:13:52;19.80;99.90
21772;DHT22;11047;47.904;8.110;2022-08-19T15:16:21;19.80;99.90
21772;DHT22;11047;47.904;8.110;2022-08-19T15:18:50;19.70;99.90
21772;DHT22;11047;47.904;8.110;2022-08-19T15:21:18;19.50;99.90
21772;DHT22;11047;47.904;8.110;2022-08-19T15:23:45;19.60;99.90
21772;DHT22;11047;47.904;8.110;2022-08-19T15:26:13;19.40;99.90
21772;DHT22;11047;47.904;8.110;2022-08-19T15:28:40;19.30;99.90
21772;DHT22;11047;47.904;8.110;2022-08-19T15:31:08;19.30;99.90
21772;DHT22;11047;47.904;8.110;2022-08-19T15:33:37;19.30;99.90
21772;DHT22;11047;47.904;8.110;2022-08-19T15:36:05;19.40;99.90
21772;DHT22;11047;47.904;8.110;2022-08-19T15:38:34;19.50;99.90
21772;DHT22;11047;47.904;8.110;2022-08-19T15:41:01;19.70;99.90